createdAt,value
2018-08-10T00:00:30.413Z,7.07
2018-08-10T00:03:02.478Z,4.03
2018-08-10T00:05:31.277Z,4.57
2018-08-10T00:07:59.973Z,4.60
2018-08-10T00:10:29.317Z,6.20
2018-08-10T00:12:57.197Z,4.40
2018-08-10T00:15:26.183Z,7.33
2018-08-10T00:17:55.168Z,4.07
2018-08-10T00:20:23.922Z,5.60
2018-08-10T00:22:52.568Z,3.53
2018-08-10T00:25:20.720Z,8.23
2018-08-10T00:27:48.609Z,6.70
2018-08-10T00:30:18.208Z,4.57
2018-08-10T00:32:47.893Z,4.70
2018-08-10T00:35:17.769Z,2.97
2018-08-10T00:37:47.093Z,6.70
2018-08-10T00:40:18.596Z,7.10
2018-08-10T00:42:47.176Z,4.80
2018-08-10T00:45:16.206Z,4.40
2018-08-10T00:47:44.601Z,4.80
2018-08-10T00:50:14.757Z,4.93
2018-08-10T00:52:43.928Z,4.97
2018-08-10T00:55:13.637Z,4.57
2018-08-10T00:57:42.764Z,7.20
2018-08-10T01:00:12.413Z,4.10
2018-08-10T01:02:41.613Z,5.80
2018-08-10T01:05:10.096Z,6.53
2018-08-10T01:07:38.555Z,4.53
2018-08-10T01:10:09.093Z,7.70
2018-08-10T01:12:38.584Z,11.00
2018-08-10T01:15:08.308Z,4.77
2018-08-10T01:17:37.127Z,5.47
2018-08-10T01:20:09.641Z,5.80
2018-08-10T01:22:43.809Z,6.93
2018-08-10T01:25:12.881Z,7.10
2018-08-10T01:27:46.900Z,4.20
2018-08-10T01:30:14.837Z,4.20
2018-08-10T01:32:43.967Z,5.07
2018-08-10T01:35:12.821Z,6.73
2018-08-10T01:37:41.242Z,12.33
2018-08-10T01:40:10.249Z,4.53
2018-08-10T01:42:39.885Z,6.93
2018-08-10T01:45:09.554Z,4.60
2018-08-10T01:47:37.725Z,4.17
2018-08-10T01:50:07.392Z,6.93
2018-08-10T01:53:17.921Z,5.30
2018-08-10T01:55:45.828Z,7.00
2018-08-10T01:58:14.072Z,5.20
2018-08-10T02:00:42.825Z,5.93
2018-08-10T02:03:11.349Z,7.13
2018-08-10T02:05:39.297Z,5.87
2018-08-10T02:08:07.761Z,5.97
2018-08-10T02:10:35.733Z,5.33
2018-08-10T02:13:04.085Z,4.80
2018-08-10T02:15:32.688Z,3.77
2018-08-10T02:18:00.576Z,6.97
2018-08-10T02:20:28.985Z,6.33
2018-08-10T02:22:57.217Z,6.87
2018-08-10T02:25:26.106Z,5.20
2018-08-10T02:27:54.386Z,4.10
2018-08-10T02:30:22.771Z,5.93
2018-08-10T02:32:52.063Z,5.07
2018-08-10T02:35:20.757Z,7.43
2018-08-10T02:37:48.980Z,9.13
2018-08-10T02:40:19.245Z,4.97
2018-08-10T02:42:48.266Z,7.00
2018-08-10T02:45:17.234Z,4.70
2018-08-10T02:47:45.724Z,5.10
2018-08-10T02:50:13.664Z,5.30
2018-08-10T02:52:41.670Z,6.00
2018-08-10T02:55:11.155Z,4.67
2018-08-10T02:57:39.628Z,5.87
2018-08-10T03:00:10.409Z,5.53
2018-08-10T03:02:39.058Z,5.50
2018-08-10T03:05:08.209Z,4.60
2018-08-10T03:07:36.601Z,4.60
2018-08-10T03:10:06.262Z,6.10
2018-08-10T03:12:35.648Z,5.83
2018-08-10T03:15:06.020Z,5.10
2018-08-10T03:17:34.249Z,4.03
2018-08-10T03:20:03.113Z,4.93
2018-08-10T03:22:31.850Z,5.63
2018-08-10T03:25:00.629Z,5.63
2018-08-10T03:27:29.296Z,4.80
2018-08-10T03:29:57.681Z,6.33
2018-08-10T03:32:26.628Z,5.80
2018-08-10T03:34:54.947Z,7.90
2018-08-10T03:37:23.469Z,6.00
2018-08-10T03:39:52.209Z,4.80
2018-08-10T03:42:20.485Z,9.80
2018-08-10T03:44:49.178Z,5.63
2018-08-10T03:47:18.825Z,5.30
2018-08-10T03:49:46.804Z,9.37
2018-08-10T03:52:15.026Z,5.10
2018-08-10T03:54:45.113Z,5.13
2018-08-10T03:57:14.027Z,5.57
2018-08-10T03:59:42.416Z,5.67
2018-08-10T04:02:11.268Z,6.20
2018-08-10T04:04:39.152Z,7.17
2018-08-10T04:07:08.249Z,6.17
2018-08-10T04:09:36.548Z,5.80
2018-08-10T04:12:11.847Z,5.83
2018-08-10T04:14:40.257Z,5.47
2018-08-10T04:17:25.925Z,8.17
2018-08-10T04:19:55.186Z,5.93
2018-08-10T04:22:24.356Z,6.03
2018-08-10T04:24:52.564Z,6.47
2018-08-10T04:27:20.561Z,6.20
2018-08-10T04:29:49.594Z,6.10
2018-08-10T04:32:17.554Z,8.80
2018-08-10T04:34:46.569Z,5.53
2018-08-10T04:37:14.989Z,5.83
2018-08-10T04:39:42.821Z,5.40
2018-08-10T04:42:14.901Z,6.97
2018-08-10T04:44:42.829Z,6.20
2018-08-10T04:47:11.618Z,8.30
2018-08-10T04:49:39.997Z,5.87
2018-08-10T04:52:08.294Z,8.03
2018-08-10T04:54:37.397Z,5.90
2018-08-10T04:57:06.464Z,5.83
2018-08-10T04:59:34.409Z,6.17
2018-08-10T05:02:02.758Z,5.27
2018-08-10T05:04:31.501Z,6.43
2018-08-10T05:06:59.917Z,5.70
2018-08-10T05:09:27.816Z,6.43
2018-08-10T05:11:55.729Z,6.20
2018-08-10T05:14:25.301Z,7.20
2018-08-10T05:16:54.418Z,5.17
2018-08-10T05:19:22.693Z,5.90
2018-08-10T05:21:52.075Z,8.70
2018-08-10T05:24:20.281Z,6.27
2018-08-10T05:26:49.077Z,10.83
2018-08-10T05:29:17.357Z,13.60
2018-08-10T05:31:45.274Z,7.77
2018-08-10T05:34:13.688Z,6.40
2018-08-10T05:36:42.505Z,7.47
2018-08-10T05:39:11.400Z,7.53
2018-08-10T05:41:39.686Z,6.60
2018-08-10T05:44:08.502Z,6.67
2018-08-10T05:46:36.753Z,9.80
2018-08-10T05:49:05.233Z,6.70
2018-08-10T05:51:33.572Z,8.20
2018-08-10T05:54:02.775Z,5.00
2018-08-10T05:56:31.433Z,7.23
2018-08-10T05:58:59.628Z,5.87
2018-08-10T06:01:28.465Z,5.30
2018-08-10T06:03:56.353Z,5.40
2018-08-10T06:06:24.659Z,6.03
2018-08-10T06:08:53.372Z,6.13
2018-08-10T06:11:22.561Z,5.53
2018-08-10T06:13:51.341Z,6.53
2018-08-10T06:16:20.263Z,5.80
2018-08-10T06:18:50.317Z,9.90
2018-08-10T06:21:19.156Z,5.70
2018-08-10T06:23:47.473Z,5.80
2018-08-10T06:26:15.944Z,6.83
2018-08-10T06:28:43.885Z,6.67
2018-08-10T06:31:12.750Z,5.80
2018-08-10T06:33:41.152Z,6.53
2018-08-10T06:36:10.882Z,5.77
2018-08-10T06:38:40.310Z,5.73
2018-08-10T06:41:08.973Z,5.43
2018-08-10T06:43:38.093Z,5.53
2018-08-10T06:46:06.776Z,3.33
2018-08-10T06:48:40.254Z,4.60
2018-08-10T06:51:13.754Z,3.83
2018-08-10T06:53:42.293Z,4.00
2018-08-10T06:56:11.033Z,4.00
2018-08-10T06:58:39.977Z,3.70
2018-08-10T07:01:10.053Z,4.10
2018-08-10T07:03:39.434Z,3.67
2018-08-10T07:06:14.524Z,4.00
2018-08-10T07:08:42.908Z,2.57
2018-08-10T07:11:10.840Z,3.80
2018-08-10T07:13:39.180Z,2.50
2018-08-10T07:16:07.841Z,2.07
2018-08-10T07:18:36.217Z,2.20
2018-08-10T07:21:04.893Z,2.33
2018-08-10T07:23:34.807Z,1.93
2018-08-10T07:26:02.753Z,1.87
2018-08-10T07:28:32.101Z,10.77
2018-08-10T07:31:00.368Z,2.40
2018-08-10T07:33:29.009Z,2.37
2018-08-10T07:35:57.704Z,4.63
2018-08-10T07:38:27.711Z,2.50
2018-08-10T07:40:58.289Z,3.23
2018-08-10T07:43:28.673Z,3.47
2018-08-10T07:45:58.889Z,2.87
2018-08-10T07:48:51.384Z,3.00
2018-08-10T07:51:22.247Z,3.00
2018-08-10T07:53:51.916Z,2.50
2018-08-10T07:56:20.375Z,4.07
2018-08-10T07:58:48.789Z,5.30
2018-08-10T08:01:16.717Z,3.50
2018-08-10T08:03:44.645Z,3.10
2018-08-10T08:06:13.573Z,2.90
2018-08-10T08:08:41.496Z,3.70
2018-08-10T08:11:10.265Z,2.60
2018-08-10T08:13:38.441Z,3.10
2018-08-10T08:16:06.657Z,2.87
2018-08-10T08:18:35.638Z,3.33
2018-08-10T08:21:06.797Z,3.33
2018-08-10T08:23:35.029Z,2.33
2018-08-10T08:26:03.930Z,2.07
2018-08-10T08:28:33.101Z,2.83
2018-08-10T08:31:01.913Z,2.70
2018-08-10T08:33:30.345Z,1.90
2018-08-10T08:35:59.997Z,2.07
2018-08-10T08:38:39.916Z,1.53
2018-08-10T08:41:09.362Z,1.80
2018-08-10T08:45:53.830Z,1.40
2018-08-10T08:48:22.193Z,1.67
2018-08-10T08:50:52.121Z,2.07
2018-08-10T08:53:20.389Z,2.10
2018-08-10T08:55:59.177Z,1.60
2018-08-10T08:58:28.206Z,2.03
2018-08-10T09:00:57.257Z,2.30
2018-08-10T09:03:36.741Z,1.60
2018-08-10T09:06:09.918Z,1.63
2018-08-10T09:08:39.434Z,1.23
2018-08-10T09:11:08.825Z,0.73
2018-08-10T09:14:52.284Z,0.80
2018-08-10T09:17:20.828Z,2.30
2018-08-10T09:19:49.753Z,1.07
2018-08-10T09:22:18.120Z,1.90
2018-08-10T09:24:46.916Z,0.80
2018-08-10T09:27:19.133Z,1.23
2018-08-10T09:29:48.458Z,1.07
2018-08-10T09:32:16.789Z,1.53
2018-08-10T09:34:45.350Z,1.20
2018-08-10T09:37:14.157Z,1.13
2018-08-10T09:39:42.688Z,1.10
2018-08-10T09:42:11.385Z,1.30
2018-08-10T09:44:39.681Z,2.00
2018-08-10T09:47:08.696Z,2.00
2018-08-10T09:49:46.491Z,2.10
2018-08-10T09:52:14.843Z,1.97
2018-08-10T09:55:25.523Z,1.77
2018-08-10T09:57:54.946Z,2.43
2018-08-10T10:00:30.347Z,2.50
2018-08-10T10:03:03.794Z,2.37
2018-08-10T10:05:32.148Z,2.40
2018-08-10T10:07:59.982Z,2.17
2018-08-10T10:10:31.624Z,2.23
2018-08-10T10:13:01.270Z,2.37
2018-08-10T10:15:31.956Z,2.50
2018-08-10T10:18:00.412Z,2.30
2018-08-10T10:20:39.371Z,2.40
2018-08-10T10:23:07.530Z,2.10
2018-08-10T10:25:44.382Z,2.07
2018-08-10T10:28:18.490Z,2.63
2018-08-10T10:30:49.431Z,6.63
2018-08-10T10:33:29.688Z,2.20
2018-08-10T10:36:05.184Z,2.30
2018-08-10T10:38:34.317Z,2.30
2018-08-10T10:41:08.200Z,2.13
2018-08-10T10:43:37.083Z,1.53
2018-08-10T10:49:16.050Z,2.50
2018-08-10T10:51:44.518Z,2.00
2018-08-10T10:54:15.539Z,1.80
2018-08-10T10:56:51.486Z,2.30
2018-08-10T11:02:00.748Z,2.30
2018-08-10T11:04:29.061Z,1.80
2018-08-10T11:06:57.285Z,1.67
2018-08-10T11:09:26.564Z,1.80
2018-08-10T11:11:54.516Z,1.23
2018-08-10T11:14:22.437Z,1.57
2018-08-10T11:16:50.380Z,1.30
2018-08-10T11:19:18.763Z,1.73
2018-08-10T11:21:47.053Z,1.70
2018-08-10T11:24:16.234Z,1.50
2018-08-10T11:26:44.859Z,1.43
2018-08-10T11:29:13.581Z,0.77
2018-08-10T11:31:41.950Z,1.20
2018-08-10T11:34:10.558Z,1.33
2018-08-10T11:36:40.518Z,1.40
2018-08-10T11:39:10.965Z,1.47
2018-08-10T11:41:39.328Z,1.30
2018-08-10T11:44:07.548Z,1.73
2018-08-10T11:46:36.222Z,1.60
2018-08-10T11:49:05.030Z,1.27
2018-08-10T11:51:34.554Z,1.40
2018-08-10T11:54:03.317Z,2.10
2018-08-10T11:56:32.042Z,1.40
2018-08-10T11:59:00.406Z,1.60
2018-08-10T12:01:28.880Z,1.20
2018-08-10T12:03:56.851Z,2.07
2018-08-10T12:06:24.668Z,1.13
2018-08-10T12:08:53.157Z,1.53
2018-08-10T12:11:21.445Z,1.40
2018-08-10T12:13:49.389Z,1.17
2018-08-10T12:16:17.621Z,3.00
2018-08-10T12:18:46.591Z,2.93
2018-08-10T12:21:15.105Z,1.83
2018-08-10T12:23:43.469Z,1.90
2018-08-10T12:26:11.390Z,1.73
2018-08-10T12:28:40.584Z,2.20
2018-08-10T12:31:08.361Z,2.03
2018-08-10T12:33:36.325Z,2.10
2018-08-10T12:36:07.722Z,1.50
2018-08-10T12:38:37.085Z,1.73
2018-08-10T12:41:05.422Z,1.50
2018-08-10T12:43:33.377Z,1.50
2018-08-10T12:46:02.869Z,1.50
2018-08-10T12:48:32.227Z,1.60
2018-08-10T12:51:01.578Z,1.40
2018-08-10T12:53:29.909Z,1.73
2018-08-10T12:55:59.348Z,1.60
2018-08-10T12:58:27.553Z,1.83
2018-08-10T13:00:56.108Z,1.50
2018-08-10T13:03:24.504Z,1.50
2018-08-10T13:05:52.813Z,1.80
2018-08-10T13:08:21.369Z,1.87
2018-08-10T13:10:50.041Z,1.87
2018-08-10T13:13:19.278Z,2.63
2018-08-10T13:15:47.149Z,2.17
2018-08-10T13:18:15.781Z,1.80
2018-08-10T13:20:44.113Z,2.00
2018-08-10T13:23:23.423Z,2.07
2018-08-10T13:25:51.333Z,2.03
2018-08-10T13:28:20.593Z,2.80
2018-08-10T13:30:48.769Z,2.90
2018-08-10T13:33:17.646Z,2.00
2018-08-10T13:35:46.485Z,2.40
2018-08-10T13:38:15.441Z,2.60
2018-08-10T13:40:43.375Z,3.13
2018-08-10T13:43:11.764Z,3.17
2018-08-10T13:45:39.725Z,3.03
2018-08-10T13:48:07.629Z,3.57
2018-08-10T13:50:35.945Z,3.30
2018-08-10T13:53:06.063Z,3.53
2018-08-10T13:55:34.349Z,3.10
2018-08-10T13:58:03.498Z,4.57
2018-08-10T14:00:32.704Z,3.60
2018-08-10T14:03:01.180Z,4.37
2018-08-10T14:05:30.212Z,3.97
2018-08-10T14:07:58.128Z,4.30
2018-08-10T14:10:26.393Z,3.37
2018-08-10T14:12:55.153Z,3.80
2018-08-10T14:15:23.092Z,3.93
2018-08-10T14:17:51.346Z,4.03
2018-08-10T14:20:19.669Z,3.43
2018-08-10T14:22:47.916Z,4.30
2018-08-10T14:25:16.232Z,4.03
2018-08-10T14:27:45.568Z,2.97
2018-08-10T14:30:14.807Z,2.20
2018-08-10T14:32:43.329Z,3.07
2018-08-10T14:35:12.284Z,2.90
2018-08-10T14:37:40.177Z,3.70
2018-08-10T14:40:10.279Z,3.50
2018-08-10T14:42:38.602Z,4.20
2018-08-10T14:45:10.312Z,3.60
2018-08-10T14:47:38.696Z,4.23
2018-08-10T14:50:09.216Z,3.73
2018-08-10T14:52:38.080Z,4.27
2018-08-10T14:55:07.153Z,4.23
2018-08-10T14:57:35.940Z,2.80
2018-08-10T15:00:08.264Z,3.90
2018-08-10T15:02:36.545Z,3.33
2018-08-10T15:05:05.029Z,3.50
2018-08-10T15:07:33.152Z,3.20
2018-08-10T15:10:02.511Z,3.10
2018-08-10T15:12:34.807Z,3.70
2018-08-10T15:15:03.077Z,3.00
2018-08-10T15:17:31.433Z,3.63
2018-08-10T15:20:00.121Z,2.60
2018-08-10T15:22:28.508Z,2.80
2018-08-10T15:24:57.791Z,2.90
2018-08-10T15:27:26.039Z,3.00
2018-08-10T15:29:54.224Z,3.00
2018-08-10T15:32:23.292Z,3.97
2018-08-10T15:34:51.589Z,2.93
2018-08-10T15:37:19.530Z,4.23
2018-08-10T15:39:47.428Z,3.10
2018-08-10T15:42:16.160Z,4.30
2018-08-10T15:44:44.797Z,2.97
2018-08-10T15:47:13.632Z,3.70
2018-08-10T15:49:41.453Z,3.03
2018-08-10T15:52:09.420Z,2.77
2018-08-10T15:54:37.892Z,3.43
2018-08-10T15:57:06.730Z,3.53
2018-08-10T15:59:35.344Z,3.90
2018-08-10T16:02:03.662Z,4.00
2018-08-10T16:04:32.341Z,3.87
2018-08-10T16:07:00.937Z,4.80
2018-08-10T16:09:30.122Z,4.40
2018-08-10T16:11:58.043Z,4.77
2018-08-10T16:14:26.445Z,4.83
2018-08-10T16:16:55.367Z,4.53
2018-08-10T16:19:23.828Z,4.97
2018-08-10T16:21:52.425Z,4.80
2018-08-10T16:24:20.817Z,4.77
2018-08-10T16:26:49.409Z,4.77
2018-08-10T16:29:21.841Z,4.40
2018-08-10T16:31:50.138Z,4.50
2018-08-10T16:34:18.452Z,5.03
2018-08-10T16:36:47.464Z,5.53
2018-08-10T16:39:17.014Z,5.57
2018-08-10T16:41:47.288Z,5.77
2018-08-10T16:44:15.674Z,4.90
2018-08-10T16:46:45.301Z,5.33
2018-08-10T16:49:14.255Z,5.20
2018-08-10T16:51:42.669Z,4.60
2018-08-10T16:54:11.349Z,4.27
2018-08-10T16:56:40.542Z,5.67
2018-08-10T16:59:08.828Z,6.30
2018-08-10T17:01:37.628Z,6.30
2018-08-10T17:04:06.493Z,6.20
2018-08-10T17:06:35.232Z,5.80
2018-08-10T17:09:03.512Z,6.80
2018-08-10T17:11:32.361Z,6.53
2018-08-10T17:14:01.157Z,5.80
2018-08-10T17:16:29.065Z,7.93
2018-08-10T17:18:57.298Z,6.20
2018-08-10T17:21:25.981Z,6.00
2018-08-10T17:23:55.077Z,6.30
2018-08-10T17:26:23.627Z,6.93
2018-08-10T17:28:52.952Z,6.17
2018-08-10T17:31:20.899Z,6.40
2018-08-10T17:33:48.997Z,7.17
2018-08-10T17:36:17.000Z,8.00
2018-08-10T17:38:45.961Z,7.07
2018-08-10T17:41:14.253Z,6.67
2018-08-10T17:43:44.425Z,6.70
2018-08-10T17:50:12.156Z,7.53
2018-08-10T17:52:42.437Z,8.27
2018-08-10T17:55:11.092Z,7.00
2018-08-10T17:57:40.461Z,7.87
2018-08-10T18:00:10.979Z,6.87
2018-08-10T18:02:39.376Z,7.67
2018-08-10T18:05:10.341Z,6.87
2018-08-10T18:07:38.914Z,7.37
2018-08-10T18:10:07.713Z,7.27
2018-08-10T18:12:36.380Z,7.07
2018-08-10T18:15:06.733Z,7.37
2018-08-10T18:17:35.121Z,7.60
2018-08-10T18:20:09.740Z,7.00
2018-08-10T18:22:37.671Z,6.97
2018-08-10T18:25:07.182Z,6.37
2018-08-10T18:27:36.005Z,6.70
2018-08-10T18:30:08.099Z,7.57
2018-08-10T18:32:38.362Z,7.60
2018-08-10T18:35:07.945Z,6.93
2018-08-10T18:37:36.845Z,8.10
2018-08-10T18:40:05.866Z,8.17
2018-08-10T18:42:35.277Z,7.50
2018-08-10T18:45:03.126Z,9.37
2018-08-10T18:50:06.017Z,8.43
2018-08-10T18:52:35.005Z,10.37
2018-08-10T18:55:03.469Z,10.20
2018-08-10T18:57:32.006Z,9.23
2018-08-10T19:00:00.436Z,10.37
2018-08-10T19:02:28.369Z,10.13
2018-08-10T19:04:57.668Z,11.70
2018-08-10T19:07:25.944Z,11.57
2018-08-10T19:09:55.561Z,10.53
2018-08-10T19:12:23.913Z,12.77
2018-08-10T19:14:51.887Z,11.30
2018-08-10T19:17:20.941Z,12.60
2018-08-10T19:19:49.293Z,12.77
2018-08-10T19:22:18.102Z,12.47
2018-08-10T19:24:46.469Z,13.80
2018-08-10T19:27:15.498Z,12.20
2018-08-10T19:29:43.985Z,13.90
2018-08-10T19:32:12.998Z,13.40
2018-08-10T19:34:40.908Z,13.43
2018-08-10T19:37:09.892Z,13.50
2018-08-10T19:39:39.305Z,12.80
2018-08-10T19:42:08.089Z,12.40
2018-08-10T19:44:36.564Z,13.10
2018-08-10T19:47:06.197Z,14.33
2018-08-10T19:49:35.408Z,14.03
2018-08-10T19:52:03.761Z,12.90
2018-08-10T19:54:32.677Z,13.03
2018-08-10T19:57:00.633Z,14.37
2018-08-10T19:59:28.940Z,12.83
2018-08-10T20:01:58.086Z,12.50
2018-08-10T20:04:26.868Z,13.40
2018-08-10T20:06:55.183Z,15.80
2018-08-10T20:09:24.496Z,14.13
2018-08-10T20:11:53.088Z,11.00
2018-08-10T20:14:22.452Z,12.53
2018-08-10T20:16:50.759Z,12.03
2018-08-10T20:19:19.336Z,10.50
2018-08-10T20:21:48.481Z,12.03
2018-08-10T20:24:16.345Z,10.47
2018-08-10T20:26:44.701Z,10.57
2018-08-10T20:29:14.048Z,10.40
2018-08-10T20:31:43.730Z,9.07
2018-08-10T20:34:11.837Z,10.53
2018-08-10T20:36:39.792Z,11.10
2018-08-10T20:39:09.698Z,11.63
2018-08-10T20:41:38.327Z,11.43
2018-08-10T20:44:08.601Z,12.07
2018-08-10T20:46:40.039Z,13.20
2018-08-10T20:49:08.384Z,14.30
2018-08-10T20:51:37.384Z,11.80
2018-08-10T20:54:08.796Z,11.60
2018-08-10T20:56:37.236Z,12.80
2018-08-10T20:59:05.641Z,13.50
2018-08-10T21:01:35.009Z,12.70
2018-08-10T21:04:05.196Z,13.20
2018-08-10T21:06:44.709Z,12.67
2018-08-10T21:09:17.021Z,11.30
2018-08-10T21:11:47.513Z,11.63
2018-08-10T21:14:18.632Z,13.30
2018-08-10T21:16:52.734Z,16.30
2018-08-10T21:19:21.511Z,13.17
2018-08-10T21:21:49.807Z,17.50
2018-08-10T21:24:21.785Z,14.30
2018-08-10T21:26:50.069Z,11.90
2018-08-10T21:29:19.342Z,14.20
2018-08-10T21:31:48.458Z,12.77
2018-08-10T21:34:17.109Z,13.83
2018-08-10T21:36:46.449Z,14.10
2018-08-10T21:39:14.406Z,14.83
2018-08-10T21:41:49.810Z,11.33
2018-08-10T21:44:18.514Z,13.07
2018-08-10T21:46:50.245Z,17.70
2018-08-10T21:49:38.921Z,13.20
2018-08-10T21:52:07.128Z,12.23
2018-08-10T21:54:35.340Z,12.80
2018-08-10T21:57:04.196Z,12.63
2018-08-10T21:59:33.489Z,15.47
2018-08-10T22:02:02.577Z,14.43
2018-08-10T22:04:30.776Z,16.10
2018-08-10T22:07:01.980Z,16.50
2018-08-10T22:09:30.610Z,13.60
2018-08-10T22:11:59.653Z,19.37
2018-08-10T22:14:33.501Z,16.67
2018-08-10T22:17:07.333Z,18.80
2018-08-10T22:19:40.989Z,15.03
2018-08-10T22:22:12.862Z,16.13
2018-08-10T22:24:41.666Z,15.60
2018-08-10T22:27:11.095Z,13.07
2018-08-10T22:29:39.559Z,14.30
2018-08-10T22:32:08.214Z,12.57
2018-08-10T22:34:37.872Z,12.53
2018-08-10T22:37:06.613Z,13.00
2018-08-10T22:39:34.905Z,10.07
2018-08-10T22:42:03.689Z,11.33
2018-08-10T22:44:35.534Z,8.57
2018-08-10T22:47:04.904Z,10.30
2018-08-10T22:49:33.847Z,8.90
2018-08-10T22:52:02.186Z,8.80
2018-08-10T22:54:30.908Z,7.93
2018-08-10T22:56:59.633Z,6.70
2018-08-10T22:59:29.429Z,9.20
2018-08-10T23:01:57.916Z,6.90
2018-08-10T23:04:29.001Z,6.50
2018-08-10T23:06:57.756Z,6.33
2018-08-10T23:09:25.644Z,6.90
2018-08-10T23:11:54.717Z,6.10
2018-08-10T23:14:23.092Z,6.53
2018-08-10T23:16:51.348Z,5.47
2018-08-10T23:19:19.281Z,5.13
2018-08-10T23:21:47.931Z,5.60
2018-08-10T23:24:16.302Z,5.73
2018-08-10T23:26:45.501Z,5.17
2018-08-10T23:29:13.885Z,8.43
2018-08-10T23:31:42.904Z,6.13
2018-08-10T23:34:11.270Z,7.83
2018-08-10T23:36:39.728Z,5.20
2018-08-10T23:39:09.577Z,5.13
2018-08-10T23:41:38.337Z,4.30
2018-08-10T23:44:06.621Z,5.03
2018-08-10T23:46:34.988Z,7.17
2018-08-10T23:49:03.537Z,4.60
2018-08-10T23:51:31.409Z,4.80
2018-08-10T23:53:59.692Z,5.10
2018-08-10T23:56:27.553Z,8.03
2018-08-10T23:58:55.955Z,4.07
